createdAt,value
2023-05-06T00:00:36.131Z,23.33
2023-05-06T00:03:04.588Z,22.17
2023-05-06T00:05:33.096Z,23.27
2023-05-06T00:08:02.804Z,24.17
2023-05-06T00:10:31.182Z,21.50
2023-05-06T00:12:59.542Z,21.07
2023-05-06T00:15:30.088Z,22.10
2023-05-06T00:18:00.000Z,23.93
2023-05-06T00:20:29.247Z,23.10
2023-05-06T00:23:00.109Z,25.40
2023-05-06T00:25:30.088Z,24.33
2023-05-06T00:27:58.740Z,27.27
2023-05-06T00:30:28.037Z,26.87
2023-05-06T00:32:56.904Z,24.50
2023-05-06T00:35:25.785Z,29.43
2023-05-06T00:37:59.223Z,26.37
2023-05-06T00:40:29.426Z,26.17
2023-05-06T00:42:58.124Z,26.00
2023-05-06T00:45:27.634Z,22.53
2023-05-06T00:47:57.079Z,27.63
2023-05-06T00:50:28.272Z,24.27
2023-05-06T00:52:58.382Z,22.83
2023-05-06T00:55:26.855Z,24.63
2023-05-06T00:57:56.909Z,24.87
2023-05-06T01:00:25.787Z,24.07
2023-05-06T01:02:54.266Z,25.27
2023-05-06T01:05:25.701Z,25.47
2023-05-06T01:08:02.383Z,25.83
2023-05-06T01:10:40.169Z,21.57
2023-05-06T01:13:16.406Z,22.13
2023-05-06T01:15:47.932Z,22.93
2023-05-06T01:18:19.206Z,22.30
2023-05-06T01:20:51.502Z,22.63
2023-05-06T01:23:21.949Z,24.30
2023-05-06T01:25:50.773Z,21.60
2023-05-06T01:28:19.629Z,23.57
2023-05-06T01:30:59.070Z,31.03
2023-05-06T01:33:36.175Z,23.23
2023-05-06T01:36:15.841Z,23.97
2023-05-06T01:38:54.996Z,23.30
2023-05-06T01:41:27.030Z,24.67
2023-05-06T01:43:56.024Z,21.73
2023-05-06T01:46:27.417Z,23.03
2023-05-06T01:48:58.286Z,22.03
2023-05-06T01:51:27.432Z,23.67
2023-05-06T01:53:57.478Z,24.63
2023-05-06T01:56:27.123Z,23.47
2023-05-06T01:58:55.988Z,26.23
2023-05-06T02:01:25.829Z,26.30
2023-05-06T02:03:54.579Z,21.33
2023-05-06T02:06:23.307Z,25.73
2023-05-06T02:08:52.657Z,24.03
2023-05-06T02:11:23.273Z,26.50
2023-05-06T02:13:52.401Z,18.93
2023-05-06T02:16:22.023Z,19.27
2023-05-06T02:18:50.980Z,22.53
2023-05-06T02:21:19.895Z,23.17
2023-05-06T02:23:49.826Z,21.50
2023-05-06T02:26:18.637Z,18.90
2023-05-06T02:28:48.954Z,22.33
2023-05-06T02:31:17.864Z,22.17
2023-05-06T02:33:47.262Z,24.47
2023-05-06T02:36:15.734Z,16.40
2023-05-06T02:38:44.282Z,20.57
2023-05-06T02:41:12.862Z,24.93
2023-05-06T02:43:41.251Z,26.93
2023-05-06T02:46:11.597Z,41.80
2023-05-06T02:48:40.003Z,26.43
2023-05-06T02:51:08.421Z,26.97
2023-05-06T02:53:36.812Z,24.80
2023-05-06T02:56:06.007Z,26.37
2023-05-06T02:58:34.429Z,41.97
2023-05-06T03:01:02.819Z,22.93
2023-05-06T03:03:32.677Z,22.00
2023-05-06T03:06:01.039Z,29.30
2023-05-06T03:08:29.809Z,27.70
2023-05-06T03:10:58.210Z,24.93
2023-05-06T03:13:27.184Z,23.20
2023-05-06T03:15:56.509Z,25.47
2023-05-06T03:18:25.082Z,24.93
2023-05-06T03:20:54.826Z,25.90
2023-05-06T03:23:23.423Z,29.10
2023-05-06T03:25:52.474Z,29.23
2023-05-06T03:28:20.962Z,29.60
2023-05-06T03:30:49.724Z,35.03
2023-05-06T03:33:18.190Z,30.23
2023-05-06T03:35:46.684Z,34.07
2023-05-06T03:38:16.426Z,46.53
2023-05-06T03:40:44.909Z,42.57
2023-05-06T03:43:13.251Z,46.50
2023-05-06T03:45:41.600Z,33.20
2023-05-06T03:48:10.556Z,34.60
2023-05-06T03:50:39.258Z,36.17
2023-05-06T03:53:07.738Z,33.37
2023-05-06T03:55:37.752Z,48.07
2023-05-06T03:58:06.197Z,41.10
2023-05-06T04:00:34.597Z,30.23
2023-05-06T04:03:03.061Z,35.97
2023-05-06T04:05:31.881Z,29.90
2023-05-06T04:08:00.496Z,28.13
2023-05-06T04:10:32.925Z,27.50
2023-05-06T04:13:02.700Z,30.07
2023-05-06T04:15:32.876Z,23.13
2023-05-06T04:18:01.562Z,39.10
2023-05-06T04:20:30.229Z,30.43
2023-05-06T04:22:58.670Z,31.10
2023-05-06T04:25:28.030Z,25.53
2023-05-06T04:27:57.067Z,34.90
2023-05-06T04:30:27.721Z,33.03
2023-05-06T04:32:56.424Z,35.27
2023-05-06T04:35:25.398Z,34.43
2023-05-06T04:37:53.873Z,33.60
2023-05-06T04:40:23.993Z,39.53
2023-05-06T04:42:52.779Z,37.13
2023-05-06T04:45:22.341Z,37.63
2023-05-06T04:47:53.006Z,33.53
2023-05-06T04:50:22.504Z,44.20
2023-05-06T04:52:51.103Z,37.63
2023-05-06T04:55:20.085Z,39.43
2023-05-06T04:57:48.511Z,35.93
2023-05-06T05:00:18.184Z,40.50
2023-05-06T05:02:47.112Z,36.40
2023-05-06T05:05:17.429Z,39.43
2023-05-06T05:07:45.734Z,32.00
2023-05-06T05:10:14.331Z,51.40
2023-05-06T05:12:43.863Z,43.50
2023-05-06T05:15:13.147Z,48.30
2023-05-06T05:17:41.746Z,45.13
2023-05-06T05:20:11.298Z,43.73
2023-05-06T05:22:41.054Z,43.87
2023-05-06T05:25:10.201Z,47.03
2023-05-06T05:27:38.931Z,44.53
2023-05-06T05:30:09.643Z,40.57
2023-05-06T05:32:39.459Z,45.23
2023-05-06T05:35:10.317Z,39.07
2023-05-06T05:37:40.450Z,35.00
2023-05-06T05:40:10.637Z,36.93
2023-05-06T05:42:39.687Z,43.63
2023-05-06T05:45:10.957Z,43.60
2023-05-06T05:47:39.597Z,44.43
2023-05-06T05:50:09.992Z,43.77
2023-05-06T05:52:38.355Z,43.23
2023-05-06T05:55:10.853Z,44.30
2023-05-06T05:57:39.496Z,47.63
2023-05-06T06:00:13.806Z,47.43
2023-05-06T06:02:42.403Z,40.33
2023-05-06T06:05:11.476Z,40.40
2023-05-06T06:07:40.023Z,39.27
2023-05-06T06:10:10.791Z,40.47
2023-05-06T06:12:39.584Z,37.93
2023-05-06T06:15:16.917Z,39.77
2023-05-06T06:17:45.404Z,37.23
2023-05-06T06:20:15.256Z,38.67
2023-05-06T06:22:43.684Z,38.10
2023-05-06T06:25:13.749Z,36.80
2023-05-06T06:27:42.188Z,37.43
2023-05-06T06:30:14.307Z,33.70
2023-05-06T06:32:49.945Z,34.80
2023-05-06T06:35:20.195Z,34.17
2023-05-06T06:37:48.905Z,35.93
2023-05-06T06:40:19.013Z,38.50
2023-05-06T06:42:48.013Z,35.80
2023-05-06T06:45:16.932Z,36.87
2023-05-06T06:47:45.489Z,35.77
2023-05-06T06:50:14.336Z,37.70
2023-05-06T06:52:42.672Z,40.80
2023-05-06T06:55:12.144Z,35.30
2023-05-06T06:57:42.200Z,33.30
2023-05-06T07:00:12.666Z,34.47
2023-05-06T07:02:41.214Z,33.37
2023-05-06T07:05:11.012Z,34.83
2023-05-06T07:07:39.480Z,36.17
2023-05-06T07:10:10.019Z,38.00
2023-05-06T07:12:38.476Z,32.40
2023-05-06T07:15:11.555Z,32.23
2023-05-06T07:17:40.103Z,35.90
2023-05-06T07:20:11.919Z,38.30
2023-05-06T07:22:41.358Z,33.50
2023-05-06T07:25:11.139Z,36.00
2023-05-06T07:27:40.041Z,34.43
2023-05-06T07:30:11.302Z,33.87
2023-05-06T07:32:41.157Z,35.23
2023-05-06T07:35:10.917Z,37.07
2023-05-06T07:37:39.488Z,35.67
2023-05-06T07:40:09.808Z,37.03
2023-05-06T07:42:38.100Z,37.13
2023-05-06T07:45:08.212Z,37.97
2023-05-06T07:47:38.057Z,39.37
2023-05-06T07:50:07.467Z,35.17
2023-05-06T07:52:35.835Z,38.90
2023-05-06T07:55:05.100Z,37.00
2023-05-06T07:57:33.448Z,38.43
2023-05-06T08:00:01.901Z,36.33
2023-05-06T08:02:30.283Z,37.30
2023-05-06T08:05:00.372Z,38.80
2023-05-06T08:07:28.797Z,37.20
2023-05-06T08:10:00.540Z,33.77
2023-05-06T08:12:28.888Z,31.10
2023-05-06T08:14:57.656Z,29.80
2023-05-06T08:17:26.504Z,26.67
2023-05-06T08:19:55.977Z,29.23
2023-05-06T08:22:26.038Z,32.20
2023-05-06T08:24:54.956Z,33.33
2023-05-06T08:27:23.597Z,29.37
2023-05-06T08:29:52.700Z,28.10
2023-05-06T08:32:21.200Z,27.87
2023-05-06T08:34:49.988Z,26.97
2023-05-06T08:37:18.515Z,31.30
2023-05-06T08:39:49.238Z,28.67
2023-05-06T08:42:17.976Z,29.33
2023-05-06T08:44:47.215Z,28.57
2023-05-06T08:47:15.732Z,26.20
2023-05-06T08:49:46.235Z,27.07
2023-05-06T08:52:15.332Z,26.90
2023-05-06T08:54:46.052Z,27.43
2023-05-06T08:57:16.293Z,28.30
2023-05-06T08:59:45.161Z,27.70
2023-05-06T09:02:14.018Z,26.33
2023-05-06T09:04:43.016Z,23.57
2023-05-06T09:07:11.481Z,24.37
2023-05-06T09:09:39.938Z,22.53
2023-05-06T09:12:11.775Z,24.13
2023-05-06T09:14:41.997Z,26.30
2023-05-06T09:17:24.139Z,24.57
2023-05-06T09:19:53.950Z,22.90
2023-05-06T09:22:23.831Z,22.33
2023-05-06T09:24:56.944Z,20.47
2023-05-06T09:27:26.556Z,20.57
2023-05-06T09:30:05.987Z,19.77
2023-05-06T09:32:36.811Z,18.93
2023-05-06T09:35:09.384Z,21.40
2023-05-06T09:37:37.952Z,20.77
2023-05-06T09:40:09.380Z,19.20
2023-05-06T09:42:37.989Z,19.80
2023-05-06T09:45:11.817Z,17.00
2023-05-06T09:47:40.942Z,14.50
2023-05-06T09:50:11.711Z,15.53
2023-05-06T09:52:40.112Z,16.57
2023-05-06T09:55:10.385Z,14.37
2023-05-06T09:57:39.129Z,13.30
2023-05-06T10:00:12.086Z,12.90
2023-05-06T10:02:42.702Z,12.93
2023-05-06T10:05:14.005Z,9.93
2023-05-06T10:07:43.098Z,8.50
2023-05-06T10:10:13.514Z,5.70
2023-05-06T10:12:42.082Z,5.87
2023-05-06T10:15:12.788Z,4.73
2023-05-06T10:17:42.497Z,4.63
2023-05-06T10:20:14.941Z,4.17
2023-05-06T10:22:57.364Z,3.50
2023-05-06T10:25:36.560Z,3.40
2023-05-06T10:28:09.222Z,3.00
2023-05-06T10:30:46.513Z,3.40
2023-05-06T10:33:17.022Z,3.93
2023-05-06T10:35:53.626Z,3.57
2023-05-06T10:38:28.052Z,2.87
2023-05-06T10:40:57.138Z,3.83
2023-05-06T10:43:29.409Z,2.80
2023-05-06T10:46:09.199Z,3.15
2023-05-06T10:48:41.174Z,3.13
2023-05-06T10:51:27.401Z,2.70
2023-05-06T10:54:05.534Z,4.50
2023-05-06T10:56:36.452Z,4.72
2023-05-06T10:59:09.092Z,4.85
2023-05-06T11:01:41.460Z,4.97
2023-05-06T11:04:12.365Z,5.05
2023-05-06T11:06:44.763Z,4.80
2023-05-06T11:09:21.338Z,4.15
2023-05-06T11:12:02.278Z,5.32
2023-05-06T11:14:32.993Z,4.97
2023-05-06T11:17:06.851Z,5.77
2023-05-06T11:19:37.359Z,5.73
2023-05-06T11:22:07.592Z,6.10
2023-05-06T11:24:42.196Z,6.80
2023-05-06T11:27:12.619Z,6.70
2023-05-06T11:29:41.034Z,8.87
2023-05-06T11:32:25.377Z,8.63
2023-05-06T11:34:58.269Z,8.97
2023-05-06T11:37:28.482Z,8.77
2023-05-06T11:39:57.577Z,7.70
2023-05-06T11:42:28.559Z,8.48
2023-05-06T11:45:03.182Z,8.65
2023-05-06T11:47:32.943Z,9.57
2023-05-06T11:50:07.534Z,8.40
2023-05-06T11:52:37.347Z,9.25
2023-05-06T11:55:11.105Z,9.90
2023-05-06T11:57:46.375Z,8.07
2023-05-06T12:00:16.424Z,8.23
2023-05-06T12:02:46.265Z,8.13
2023-05-06T12:05:14.966Z,6.97
2023-05-06T12:07:46.175Z,6.68
2023-05-06T12:10:17.166Z,5.72
2023-05-06T12:12:46.029Z,6.80
2023-05-06T12:15:14.502Z,9.20
2023-05-06T12:17:43.217Z,9.75
2023-05-06T12:20:16.768Z,11.05
2023-05-06T12:22:45.375Z,11.45
2023-05-06T12:25:17.977Z,10.57
2023-05-06T12:27:46.831Z,10.80
2023-05-06T12:30:15.692Z,11.17
2023-05-06T12:32:59.944Z,10.60
2023-05-06T12:35:33.188Z,10.37
2023-05-06T12:38:11.693Z,10.20
2023-05-06T12:40:41.496Z,11.33
2023-05-06T12:43:13.479Z,11.37
2023-05-06T12:45:42.303Z,11.07
2023-05-06T12:48:18.026Z,11.90
2023-05-06T12:50:48.181Z,12.80
2023-05-06T12:53:33.809Z,12.60
2023-05-06T12:56:02.289Z,12.90
2023-05-06T12:58:37.356Z,12.67
2023-05-06T13:01:07.657Z,13.60
2023-05-06T13:03:38.607Z,12.13
2023-05-06T13:06:09.128Z,13.10
2023-05-06T13:08:37.937Z,14.13
2023-05-06T13:11:08.322Z,14.10
2023-05-06T13:13:37.055Z,14.50
2023-05-06T13:16:06.397Z,14.17
2023-05-06T13:18:36.040Z,14.00
2023-05-06T13:21:04.986Z,14.60
2023-05-06T13:23:36.699Z,20.40
2023-05-06T13:26:06.168Z,22.43
2023-05-06T13:28:36.663Z,23.60
2023-05-06T13:31:05.903Z,25.50
2023-05-06T13:33:34.705Z,23.57
2023-05-06T13:36:05.257Z,19.50
2023-05-06T13:38:35.409Z,18.77
2023-05-06T13:41:03.836Z,16.20
2023-05-06T13:43:32.144Z,14.37
2023-05-06T13:46:00.568Z,13.80
2023-05-06T13:48:29.033Z,13.00
2023-05-06T13:50:58.897Z,12.40
2023-05-06T13:53:28.047Z,14.27
2023-05-06T13:55:59.564Z,12.60
2023-05-06T13:58:28.875Z,13.40
2023-05-06T14:00:58.183Z,13.40
2023-05-06T14:03:27.880Z,8.70
2023-05-06T14:05:56.759Z,7.40
2023-05-06T14:08:26.423Z,4.50
2023-05-06T14:10:55.492Z,4.40
2023-05-06T14:13:26.682Z,3.07
2023-05-06T14:15:56.720Z,1.60
2023-05-06T14:18:26.611Z,1.70
2023-05-06T14:20:55.449Z,1.57
2023-05-06T14:23:25.256Z,2.77
2023-05-06T14:25:56.554Z,3.37
2023-05-06T14:28:27.328Z,4.80
2023-05-06T14:30:56.607Z,4.93
2023-05-06T14:33:24.943Z,5.93
2023-05-06T14:35:53.649Z,7.67
2023-05-06T14:38:22.892Z,9.17
2023-05-06T14:40:52.630Z,9.47
2023-05-06T14:43:21.243Z,9.07
2023-05-06T14:45:51.307Z,9.40
2023-05-06T14:48:19.836Z,6.97
2023-05-06T14:50:55.067Z,7.10
2023-05-06T14:53:23.668Z,5.90
2023-05-06T14:55:52.644Z,5.50
2023-05-06T14:58:21.609Z,5.97
2023-05-06T15:00:51.539Z,9.10
2023-05-06T15:03:20.260Z,11.30
2023-05-06T15:05:51.111Z,11.87
2023-05-06T15:08:22.327Z,16.20
2023-05-06T15:10:51.388Z,17.70
2023-05-06T15:13:21.852Z,18.33
2023-05-06T15:15:51.598Z,19.83
2023-05-06T15:18:20.141Z,22.20
2023-05-06T15:20:48.666Z,25.03
2023-05-06T15:23:17.346Z,25.73
2023-05-06T15:25:45.726Z,23.70
2023-05-06T15:28:14.763Z,25.33
2023-05-06T15:30:43.119Z,27.47
2023-05-06T15:33:12.792Z,30.27
2023-05-06T15:35:42.589Z,27.30
2023-05-06T15:38:11.107Z,28.50
2023-05-06T15:40:41.178Z,27.70
2023-05-06T15:43:09.814Z,27.50
2023-05-06T15:45:39.167Z,27.57
2023-05-06T15:48:09.315Z,28.53
2023-05-06T15:50:39.694Z,29.60
2023-05-06T15:53:08.310Z,33.23
2023-05-06T15:55:45.221Z,29.83
2023-05-06T15:58:17.789Z,29.50
2023-05-06T16:00:46.156Z,30.20
2023-05-06T16:03:14.801Z,29.80
2023-05-06T16:05:44.812Z,30.33
2023-05-06T16:08:13.161Z,29.43
2023-05-06T16:10:43.081Z,25.83
2023-05-06T16:13:11.545Z,24.97
2023-05-06T16:15:40.156Z,27.00
2023-05-06T16:18:08.711Z,26.80
2023-05-06T16:20:37.455Z,26.10
2023-05-06T16:23:07.389Z,24.30
2023-05-06T16:25:37.807Z,20.13
2023-05-06T16:28:06.749Z,18.17
2023-05-06T16:30:35.076Z,17.40
2023-05-06T16:33:04.140Z,18.33
2023-05-06T16:35:33.641Z,15.93
2023-05-06T16:38:01.986Z,13.63
2023-05-06T16:40:32.192Z,10.97
2023-05-06T16:43:01.218Z,10.57
2023-05-06T16:45:29.667Z,9.03
2023-05-06T16:47:58.269Z,6.50
2023-05-06T16:50:28.273Z,5.90
2023-05-06T16:52:56.591Z,6.70
2023-05-06T16:55:26.715Z,5.83
2023-05-06T16:58:00.502Z,8.17
2023-05-06T17:00:29.973Z,8.30
2023-05-06T17:02:58.564Z,8.47
2023-05-06T17:05:31.034Z,14.13
2023-05-06T17:07:59.740Z,13.30
2023-05-06T17:10:32.757Z,10.10
2023-05-06T17:13:02.881Z,9.63
2023-05-06T17:15:31.448Z,9.73
2023-05-06T17:18:00.029Z,11.27
2023-05-06T17:20:28.709Z,12.13
2023-05-06T17:22:57.739Z,11.10
2023-05-06T17:25:26.459Z,13.10
2023-05-06T17:27:55.292Z,14.50
2023-05-06T17:30:25.350Z,12.27
2023-05-06T17:32:53.605Z,13.53
2023-05-06T17:35:22.114Z,13.97
2023-05-06T17:37:51.568Z,14.20
2023-05-06T17:40:20.290Z,14.07
2023-05-06T17:42:49.053Z,15.47
2023-05-06T17:45:17.632Z,14.53
2023-05-06T17:47:47.582Z,15.00
2023-05-06T17:50:16.211Z,15.03
2023-05-06T17:52:46.329Z,14.70
2023-05-06T17:55:17.364Z,15.03
2023-05-06T17:57:46.279Z,15.47
2023-05-06T18:00:16.886Z,14.30
2023-05-06T18:02:47.513Z,14.93
2023-05-06T18:05:15.948Z,14.60
2023-05-06T18:07:44.360Z,14.30
2023-05-06T18:10:13.048Z,14.00
2023-05-06T18:12:41.613Z,13.17
2023-05-06T18:15:11.702Z,12.37
2023-05-06T18:17:40.650Z,11.67
2023-05-06T18:20:13.226Z,11.47
2023-05-06T18:22:43.011Z,13.13
2023-05-06T18:25:12.017Z,12.10
2023-05-06T18:27:40.801Z,13.00
2023-05-06T18:30:10.208Z,12.97
2023-05-06T18:32:38.572Z,12.97
2023-05-06T18:35:08.340Z,13.30
2023-05-06T18:37:38.669Z,13.47
2023-05-06T18:40:09.911Z,13.30
2023-05-06T18:42:38.541Z,15.00
2023-05-06T18:45:09.136Z,16.97
2023-05-06T18:47:40.177Z,17.57
2023-05-06T18:50:10.461Z,19.37
2023-05-06T18:52:40.260Z,19.53
2023-05-06T18:55:10.053Z,19.77
2023-05-06T18:57:38.698Z,20.83
2023-05-06T19:00:09.028Z,21.07
2023-05-06T19:02:37.988Z,21.17
2023-05-06T19:05:08.307Z,22.03
2023-05-06T19:07:36.844Z,22.97
2023-05-06T19:10:11.564Z,22.47
2023-05-06T19:12:40.265Z,21.67
2023-05-06T19:15:12.331Z,23.03
2023-05-06T19:17:41.365Z,23.43
2023-05-06T19:20:11.464Z,24.30
2023-05-06T19:22:39.866Z,23.83
2023-05-06T19:25:11.424Z,23.00
2023-05-06T19:27:40.009Z,23.47
2023-05-06T19:30:10.942Z,28.47
2023-05-06T19:32:41.377Z,55.90
2023-05-06T19:35:11.283Z,29.37
2023-05-06T19:37:39.884Z,38.47
2023-05-06T19:40:11.305Z,41.57
2023-05-06T19:42:39.693Z,39.83
2023-05-06T19:45:08.964Z,36.03
2023-05-06T19:47:37.877Z,30.50
2023-05-06T19:50:08.344Z,40.30
2023-05-06T19:52:36.953Z,90.83
2023-05-06T19:55:06.081Z,47.60
2023-05-06T19:57:37.077Z,56.77
2023-05-06T20:00:10.714Z,46.93
2023-05-06T20:02:42.763Z,32.97
2023-05-06T20:05:12.065Z,32.00
2023-05-06T20:07:41.308Z,35.67
2023-05-06T20:10:14.319Z,40.43
2023-05-06T20:12:44.110Z,28.87
2023-05-06T20:15:12.850Z,46.07
2023-05-06T20:17:41.286Z,29.20
2023-05-06T20:20:11.518Z,29.67
2023-05-06T20:22:40.885Z,29.67
2023-05-06T20:25:11.590Z,33.93
2023-05-06T20:27:40.312Z,30.63
2023-05-06T20:30:11.309Z,40.07
2023-05-06T20:32:41.557Z,37.53
2023-05-06T20:35:11.274Z,119.10
2023-05-06T20:37:41.256Z,37.63
2023-05-06T20:40:11.528Z,61.50
2023-05-06T20:42:40.238Z,41.93
2023-05-06T20:45:11.442Z,93.90
2023-05-06T20:47:40.136Z,40.70
2023-05-06T20:50:16.411Z,35.00
2023-05-06T20:52:46.128Z,35.33
2023-05-06T20:55:16.132Z,37.07
2023-05-06T20:57:45.105Z,30.30
2023-05-06T21:00:15.857Z,36.23
2023-05-06T21:02:44.541Z,36.67
2023-05-06T21:05:13.505Z,28.30
2023-05-06T21:07:42.263Z,28.87
2023-05-06T21:10:12.048Z,27.17
2023-05-06T21:12:41.076Z,38.57
2023-05-06T21:15:12.050Z,33.10
2023-05-06T21:17:41.996Z,29.93
2023-05-06T21:20:11.874Z,30.30
2023-05-06T21:22:40.301Z,29.77
2023-05-06T21:25:10.448Z,33.03
2023-05-06T21:27:38.966Z,65.97
2023-05-06T21:30:10.580Z,56.73
2023-05-06T21:32:39.286Z,78.67
2023-05-06T21:35:10.547Z,38.03
2023-05-06T21:37:39.367Z,33.97
2023-05-06T21:40:10.368Z,52.30
2023-05-06T21:42:38.786Z,53.23
2023-05-06T21:45:08.831Z,47.97
2023-05-06T21:47:37.860Z,274.80
2023-05-06T21:50:10.616Z,730.30
2023-05-06T21:52:39.726Z,708.67
2023-05-06T21:55:09.901Z,306.90
2023-05-06T21:57:38.906Z,168.10
2023-05-06T22:00:12.260Z,106.87
2023-05-06T22:02:41.633Z,144.30
2023-05-06T22:05:12.176Z,96.20
2023-05-06T22:07:41.578Z,209.33
2023-05-06T22:10:10.923Z,186.37
2023-05-06T22:12:39.519Z,173.30
2023-05-06T22:15:09.498Z,63.30
2023-05-06T22:17:38.738Z,60.00
2023-05-06T22:20:12.051Z,147.97
2023-05-06T22:22:41.392Z,106.50
2023-05-06T22:25:11.419Z,140.87
2023-05-06T22:27:40.470Z,62.67
2023-05-06T22:30:11.350Z,74.63
2023-05-06T22:32:39.704Z,70.80
2023-05-06T22:35:11.389Z,48.13
2023-05-06T22:37:39.928Z,49.03
2023-05-06T22:40:12.825Z,38.80
2023-05-06T22:42:41.147Z,42.70
2023-05-06T22:45:11.675Z,58.10
2023-05-06T22:47:40.913Z,48.97
2023-05-06T22:50:12.820Z,83.77
2023-05-06T22:52:41.238Z,51.83
2023-05-06T22:55:11.043Z,70.13
2023-05-06T22:57:39.796Z,55.53
2023-05-06T23:00:12.699Z,99.43
2023-05-06T23:02:41.430Z,295.47
2023-05-06T23:05:12.032Z,76.00
2023-05-06T23:07:40.740Z,72.77
2023-05-06T23:10:10.811Z,60.37
2023-05-06T23:12:39.927Z,51.80
2023-05-06T23:15:09.577Z,44.47
2023-05-06T23:17:38.271Z,35.43
2023-05-06T23:20:08.346Z,38.77
2023-05-06T23:22:46.605Z,56.03
2023-05-06T23:25:20.730Z,40.90
2023-05-06T23:27:49.112Z,46.47
2023-05-06T23:30:17.551Z,49.03
2023-05-06T23:32:46.003Z,60.23
2023-05-06T23:35:14.400Z,44.20
2023-05-06T23:37:44.270Z,65.47
2023-05-06T23:40:14.933Z,182.43
2023-05-06T23:42:43.345Z,52.80
2023-05-06T23:45:12.394Z,48.87
2023-05-06T23:47:41.104Z,36.23
2023-05-06T23:50:10.346Z,38.27
2023-05-06T23:52:39.337Z,35.10
2023-05-06T23:55:10.520Z,35.53
2023-05-06T23:57:39.231Z,40.37
